UUDD/DME METAR and TAF weather

Enter ICAO airport designator
Station Type Date Time Source
UUDD METAR 2020/04/05 18:00 UTC NOAA

UUDD 051800Z 28004MPS CAVOK M00/M08 Q1025 R32L/CLRD60 NOSIG


Station Type Date Time Source
UUDD Decoded METAR 2020/04/05 18:00 UTC NOAA

Moscow / Domodedovo, Russia (UUDD) 55-24N 037-54E
Apr 05, 2020 - 02:00 PM EDT / 2020.04.05 1800 UTC
Wind: from the W (280 degrees) at 9 MPH (8 KT):0
Visibility: greater than 7 mile(s):0
Temperature: 32 F (0 C)
Windchill: 24 F (-4 C):1
Dew Point: 17 F (-8 C)
Relative Humidity: 54%
Pressure (altimeter): 30.27 in. Hg (1025 hPa)
ob: UUDD 051800Z 28004MPS CAVOK M00/M08 Q1025 R32L/CLRD60 NOSIG
cycle: 18

Station Type Date Time Source
UUDD TAF 2020/04/05 18:21 UTC NOAA

TAF UUDD 051657Z 0518/0624 31006MPS 9999 SCT020 TX03/0612Z TNM04/0603Z
TEMPO 0518/0521 33008G13MPS
TEMPO 0606/0615 34009G15MPS
BECMG 0615/0617 01003MPS

Example: see airport list